Time;durP1;ratioP1;P1;durP2;ratioP2;P2;SDS_P1;SDS_P2;PMS_P1;PMS_P2;Temp;Humidity;BMP_temperature;BMP_pressure;BME280_temperature;BME280_humidity;BME280_pressure;Samples;Min_cycle;Max_cycle;Signal;HPM_P1;HPM_P2
2020/12/10 05:47:17;;;;;;;10.60;6.00;;;;;;;;;;6243321;22;884313;-80
2020/12/10 05:49:45;;;;;;;11.60;6.35;;;;;;;;;;6318282;22;20383;-80
2020/12/10 05:52:16;;;;;;;10.88;5.47;;;;;;;;;;6317561;22;20508;-80
2020/12/10 05:54:43;;;;;;;11.05;6.32;;;;;;;;;;6315712;22;20003;-80
2020/12/10 05:57:09;;;;;;;13.55;7.15;;;;;;;;;;6260353;22;20030;-80
2020/12/10 05:59:35;;;;;;;12.70;6.40;;;;;;;;;;6276867;22;19995;-79
2020/12/10 06:02:02;;;;;;;11.43;5.65;;;;;;;;;;6275393;22;19999;-79
2020/12/10 06:04:28;;;;;;;12.07;6.55;;;;;;;;;;6274774;22;20010;-80
2020/12/10 06:06:57;;;;;;;10.63;5.85;;;;;;;;;;6247802;22;20038;-80
2020/12/10 06:09:23;;;;;;;11.52;6.50;;;;;;;;;;6276282;22;20043;-80
2020/12/10 06:11:49;;;;;;;10.45;5.53;;;;;;;;;;6275011;22;19996;-78
2020/12/10 06:14:15;;;;;;;9.82;5.70;;;;;;;;;;6273849;22;20099;-79
2020/12/10 06:16:41;;;;;;;9.15;5.93;;;;;;;;;;6246697;22;20018;-78
2020/12/10 06:19:10;;;;;;;11.15;5.45;;;;;;;;;;6246977;22;20437;-78
2020/12/10 06:21:38;;;;;;;9.35;4.95;;;;;;;;;;6274395;22;20450;-78
2020/12/10 06:24:22;;;;;;;8.57;4.72;;;;;;;;;;6274090;22;19996;-78
2020/12/10 06:26:48;;;;;;;8.82;5.03;;;;;;;;;;6273713;22;20012;-79
2020/12/10 06:29:18;;;;;;;9.40;5.85;;;;;;;;;;6274171;22;20312;-78
2020/12/10 06:32:02;;;;;;;8.38;5.22;;;;;;;;;;6272855;22;20006;-78
2020/12/10 06:36:46;;;;;;;8.43;5.22;;;;;;;;;;5063506;28;20408;-79
2020/12/10 06:39:12;;;;;;;7.85;5.00;;;;;;;;;;5057793;28;20033;-80
2020/12/10 06:41:57;;;;;;;9.95;5.22;;;;;;;;;;5064941;28;20056;-80
2020/12/10 06:44:34;;;;;;;9.85;4.93;;;;;;;;;;5045775;28;20021;-81
2020/12/10 06:47:00;;;;;;;8.88;5.80;;;;;;;;;;5059571;28;20033;-80
2020/12/10 06:49:30;;;;;;;10.43;5.70;;;;;;;;;;5063855;28;20064;-80
2020/12/10 06:52:11;;;;;;;12.68;6.30;;;;;;;;;;5068666;28;20048;-80
2020/12/10 06:56:57;;;;;;;10.07;5.82;;;;;;;;;;5078161;28;20777;-80
2020/12/10 06:59:40;;;;;;;10.63;5.95;;;;;;;;;;5057503;28;20017;-80
2020/12/10 07:02:17;;;;;;;10.30;6.20;;;;;;;;;;5051869;28;20033;-82
2020/12/10 07:04:50;;;;;;;10.88;6.80;;;;;;;;;;5053284;28;20119;-80
2020/12/10 07:07:22;;;;;;;10.70;6.45;;;;;;;;;;5047829;28;20016;-82
2020/12/10 07:09:48;;;;;;;11.32;5.80;;;;;;;;;;5064429;28;20021;-82
2020/12/10 07:12:21;;;;;;;9.35;5.97;;;;;;;;;;5054607;28;20051;-80
2020/12/10 07:14:48;;;;;;;10.85;6.40;;;;;;;;;;5057090;28;20025;-81
2020/12/10 07:17:14;;;;;;;11.52;7.05;;;;;;;;;;5055432;28;20020;-81
2020/12/10 07:19:40;;;;;;;11.82;5.88;;;;;;;;;;5057399;28;20020;-81
2020/12/10 07:22:06;;;;;;;10.35;5.78;;;;;;;;;;5061781;28;20021;-81
2020/12/10 07:24:32;;;;;;;12.07;6.72;;;;;;;;;;5062618;28;20013;-81
2020/12/10 07:26:57;;;;;;;10.00;6.43;;;;;;;;;;5057241;28;20032;-81
2020/12/10 07:29:23;;;;;;;12.10;7.25;;;;;;;;;;5061773;28;20017;-81
2020/12/10 07:31:50;;;;;;;13.65;6.70;;;;;;;;;;5060017;28;20476;-81
2020/12/10 07:34:16;;;;;;;12.15;6.82;;;;;;;;;;5057030;28;20104;-80
2020/12/10 07:36:53;;;;;;;11.25;6.05;;;;;;;;;;5059219;28;20495;-81
2020/12/10 07:39:32;;;;;;;12.35;6.57;;;;;;;;;;5052915;28;20049;-81
2020/12/10 07:41:58;;;;;;;10.63;6.03;;;;;;;;;;5063496;28;20032;-81
2020/12/10 07:44:25;;;;;;;12.02;6.10;;;;;;;;;;5052010;28;20026;-81
2020/12/10 07:46:51;;;;;;;12.18;5.85;;;;;;;;;;5063957;28;20029;-81
2020/12/10 07:49:24;;;;;;;10.90;5.88;;;;;;;;;;5054880;28;20056;-81
2020/12/10 07:51:50;;;;;;;9.25;5.95;;;;;;;;;;5064621;28;20032;-81
2020/12/10 07:54:16;;;;;;;11.55;5.80;;;;;;;;;;5056466;28;20025;-81
2020/12/10 07:56:43;;;;;;;10.65;6.40;;;;;;;;;;5049115;28;20036;-80
2020/12/10 07:59:10;;;;;;;9.10;5.78;;;;;;;;;;5064531;28;20068;-81
2020/12/10 08:01:40;;;;;;;12.20;7.20;;;;;;;;;;5056248;28;20021;-81
2020/12/10 08:04:13;;;;;;;9.35;6.05;;;;;;;;;;5051234;28;20051;-81
2020/12/10 08:06:40;;;;;;;10.68;6.15;;;;;;;;;;5037518;28;20101;-81
2020/12/10 08:09:07;;;;;;;10.95;5.97;;;;;;;;;;5052609;28;20106;-80
2020/12/10 08:11:33;;;;;;;11.93;5.80;;;;;;;;;;5040120;28;20018;-80
2020/12/10 08:13:59;;;;;;;8.80;5.07;;;;;;;;;;5041662;28;20079;-80
2020/12/10 08:16:35;;;;;;;8.30;5.03;;;;;;;;;;5046115;28;20366;-80
2020/12/10 08:19:10;;;;;;;8.02;4.63;;;;;;;;;;5041589;28;20426;-79
2020/12/10 08:21:36;;;;;;;7.97;4.85;;;;;;;;;;5041697;28;20017;-81
2020/12/10 08:24:02;;;;;;;7.40;4.78;;;;;;;;;;5033627;28;20014;-80
2020/12/10 08:26:28;;;;;;;9.40;4.93;;;;;;;;;;5041124;28;20108;-80
2020/12/10 08:28:55;;;;;;;7.90;4.30;;;;;;;;;;5036585;28;20508;-80
2020/12/10 08:31:21;;;;;;;9.40;4.90;;;;;;;;;;5042122;28;20016;-80
2020/12/10 08:33:47;;;;;;;9.68;5.05;;;;;;;;;;5039189;28;20033;-79
2020/12/10 08:36:23;;;;;;;7.13;4.25;;;;;;;;;;5045538;28;20044;-79
2020/12/10 08:38:56;;;;;;;9.63;5.60;;;;;;;;;;5039902;28;20032;-80
2020/12/10 08:41:25;;;;;;;7.82;3.70;;;;;;;;;;5043208;28;20052;-80
2020/12/10 08:43:58;;;;;;;9.10;5.38;;;;;;;;;;5053284;28;20029;-81
2020/12/10 08:46:24;;;;;;;10.13;4.72;;;;;;;;;;5049484;28;20021;-79
2020/12/10 08:48:50;;;;;;;10.35;5.93;;;;;;;;;;5063159;28;20087;-80
2020/12/10 08:51:16;;;;;;;10.85;6.65;;;;;;;;;;5051048;28;20024;-81
2020/12/10 08:53:50;;;;;;;10.50;6.18;;;;;;;;;;5054199;28;20057;-81
2020/12/10 08:56:24;;;;;;;11.63;6.35;;;;;;;;;;5042035;28;20508;-81
2020/12/10 08:58:50;;;;;;;12.40;7.15;;;;;;;;;;5037414;28;20109;-81
2020/12/10 09:01:16;;;;;;;11.18;6.43;;;;;;;;;;5045533;28;20026;-81
2020/12/10 09:03:42;;;;;;;14.00;6.47;;;;;;;;;;5064145;28;20025;-80
2020/12/10 09:06:08;;;;;;;11.98;6.80;;;;;;;;;;5052196;28;20048;-80
2020/12/10 09:08:34;;;;;;;12.80;7.32;;;;;;;;;;5059143;28;20021;-81
2020/12/10 09:11:00;;;;;;;13.85;7.25;;;;;;;;;;5047517;28;20043;-81
2020/12/10 09:13:26;;;;;;;11.63;6.47;;;;;;;;;;5037439;28;20390;-81
2020/12/10 09:15:52;;;;;;;11.50;5.97;;;;;;;;;;5049382;28;20036;-81
2020/12/10 09:18:19;;;;;;;12.25;6.57;;;;;;;;;;5038645;28;20026;-81
2020/12/10 09:20:45;;;;;;;12.35;6.60;;;;;;;;;;5041929;28;20168;-81
2020/12/10 09:23:11;;;;;;;14.27;10.35;;;;;;;;;;5043393;28;20041;-81
2020/12/10 09:25:37;;;;;;;12.88;7.95;;;;;;;;;;5044421;28;20048;-81
2020/12/10 09:28:04;;;;;;;13.85;7.22;;;;;;;;;;5040483;28;20382;-81
2020/12/10 09:30:30;;;;;;;13.63;7.32;;;;;;;;;;5050093;28;20025;-81
2020/12/10 09:32:56;;;;;;;12.65;7.32;;;;;;;;;;5041543;28;20037;-80
2020/12/10 09:35:22;;;;;;;11.57;6.60;;;;;;;;;;5052087;28;20030;-81
2020/12/10 09:37:48;;;;;;;11.13;6.60;;;;;;;;;;5038045;28;20026;-81
2020/12/10 09:40:14;;;;;;;11.30;5.97;;;;;;;;;;5050159;28;20423;-81
2020/12/10 09:44:59;;;;;;;10.32;5.88;;;;;;;;;;5117233;27;20348;-80
2020/12/10 09:47:25;;;;;;;10.85;5.40;;;;;;;;;;5126566;28;20438;-80
2020/12/10 09:49:51;;;;;;;10.30;5.80;;;;;;;;;;5114653;28;20483;-80
2020/12/10 09:52:17;;;;;;;10.35;5.90;;;;;;;;;;5130238;28;20020;-81
2020/12/10 09:54:56;;;;;;;10.50;6.75;;;;;;;;;;5114027;28;20036;-81
2020/12/10 09:59:48;;;;;;;12.23;6.07;;;;;;;;;;5122220;28;20059;-81
2020/12/10 10:02:16;;;;;;;12.82;7.13;;;;;;;;;;5119060;28;20490;-81
2020/12/10 10:04:42;;;;;;;13.15;6.68;;;;;;;;;;5118854;28;20066;-81
2020/12/10 10:07:08;;;;;;;16.48;6.85;;;;;;;;;;5108026;28;20038;-81
2020/12/10 10:09:36;;;;;;;13.68;6.35;;;;;;;;;;5124712;28;20024;-81
2020/12/10 10:12:04;;;;;;;11.15;5.75;;;;;;;;;;5117131;28;20463;-81
2020/12/10 10:14:30;;;;;;;10.77;6.15;;;;;;;;;;5123830;28;20015;-81
2020/12/10 10:16:56;;;;;;;14.00;7.80;;;;;;;;;;5116054;28;20031;-81
2020/12/10 10:19:22;;;;;;;13.00;6.97;;;;;;;;;;5122271;28;20023;-81
2020/12/10 10:21:48;;;;;;;11.05;5.82;;;;;;;;;;5119585;28;20034;-81
2020/12/10 10:24:14;;;;;;;12.20;6.07;;;;;;;;;;5120972;28;20027;-79
2020/12/10 10:26:40;;;;;;;11.13;5.85;;;;;;;;;;5120011;28;20026;-78
2020/12/10 10:29:08;;;;;;;9.82;6.10;;;;;;;;;;5114506;28;20141;-79
2020/12/10 10:31:34;;;;;;;10.57;6.18;;;;;;;;;;5121156;28;20050;-79
2020/12/10 10:34:00;;;;;;;11.02;6.10;;;;;;;;;;5115844;28;20534;-79
2020/12/10 10:36:26;;;;;;;10.73;5.72;;;;;;;;;;5121353;28;20030;-79
2020/12/10 10:38:52;;;;;;;12.32;6.78;;;;;;;;;;5116889;28;20023;-79
2020/12/10 10:41:18;;;;;;;11.27;6.28;;;;;;;;;;5111682;28;20047;-79
2020/12/10 10:43:44;;;;;;;10.13;5.35;;;;;;;;;;5115010;28;20067;-79
2020/12/10 10:46:10;;;;;;;11.15;6.18;;;;;;;;;;5121317;28;20043;-79
2020/12/10 10:48:36;;;;;;;11.60;6.38;;;;;;;;;;5120750;28;20027;-79
2020/12/10 10:51:02;;;;;;;10.65;6.38;;;;;;;;;;5116247;28;20020;-79
2020/12/10 10:53:28;;;;;;;10.95;6.05;;;;;;;;;;5121360;28;20026;-78
2020/12/10 10:55:53;;;;;;;9.57;5.25;;;;;;;;;;5104683;28;20031;-79
2020/12/10 10:58:19;;;;;;;10.30;6.07;;;;;;;;;;5100203;28;20032;-79
2020/12/10 11:00:46;;;;;;;10.10;5.80;;;;;;;;;;5101747;28;20471;-79
2020/12/10 11:03:12;;;;;;;12.00;6.95;;;;;;;;;;5098689;28;20027;-79
2020/12/10 11:07:57;;;;;;;12.93;6.60;;;;;;;;;;5075115;28;20348;-79
2020/12/10 11:10:23;;;;;;;10.88;6.25;;;;;;;;;;5084389;28;20447;-79
2020/12/10 11:12:50;;;;;;;11.10;6.88;;;;;;;;;;5078066;28;20549;-79
2020/12/10 11:15:16;;;;;;;11.57;6.22;;;;;;;;;;5070831;28;20031;-80
2020/12/10 11:17:42;;;;;;;9.77;6.05;;;;;;;;;;5079893;28;20055;-79
2020/12/10 11:20:08;;;;;;;11.10;6.97;;;;;;;;;;5077173;28;20021;-79
2020/12/10 11:22:37;;;;;;;14.07;7.07;;;;;;;;;;5076082;28;20013;-80
2020/12/10 11:25:03;;;;;;;10.73;5.53;;;;;;;;;;5082431;28;20541;-79
2020/12/10 11:27:30;;;;;;;11.05;6.65;;;;;;;;;;5079580;28;20420;-79
2020/12/10 11:29:57;;;;;;;12.82;6.55;;;;;;;;;;5085916;28;20013;-79
2020/12/10 11:32:23;;;;;;;8.70;5.35;;;;;;;;;;5073754;28;20049;-79
2020/12/10 11:34:49;;;;;;;9.65;6.68;;;;;;;;;;5082395;28;20028;-79
2020/12/10 11:37:15;;;;;;;9.43;6.15;;;;;;;;;;5083223;28;20020;-80
2020/12/10 11:39:40;;;;;;;11.32;6.22;;;;;;;;;;5081454;28;20555;-79
2020/12/10 11:42:06;;;;;;;11.43;6.57;;;;;;;;;;5076451;28;20058;-79
2020/12/10 11:44:32;;;;;;;12.57;7.47;;;;;;;;;;5070659;28;20021;-79
2020/12/10 11:46:58;;;;;;;9.88;6.32;;;;;;;;;;5083275;28;20024;-79
2020/12/10 11:51:43;;;;;;;14.43;6.70;;;;;;;;;;5107877;28;20355;-80
2020/12/10 11:54:09;;;;;;;12.50;6.88;;;;;;;;;;5098487;28;20105;-79
2020/12/10 11:56:35;;;;;;;11.73;6.85;;;;;;;;;;5088067;28;20024;-79
2020/12/10 11:59:01;;;;;;;11.15;6.32;;;;;;;;;;5103543;28;20464;-79
2020/12/10 12:01:27;;;;;;;11.20;6.28;;;;;;;;;;5091772;28;20048;-79
2020/12/10 12:03:53;;;;;;;10.10;5.55;;;;;;;;;;5102915;28;20026;-75
2020/12/10 12:06:19;;;;;;;9.63;6.60;;;;;;;;;;5075178;28;20020;-77
2020/12/10 12:08:45;;;;;;;11.80;5.47;;;;;;;;;;5077292;28;20523;-78
2020/12/10 12:11:11;;;;;;;10.23;5.97;;;;;;;;;;5071040;28;20484;-77
2020/12/10 12:13:37;;;;;;;8.70;5.47;;;;;;;;;;5072909;28;20116;-78
2020/12/10 12:16:03;;;;;;;8.68;5.28;;;;;;;;;;5078696;28;20056;-78
2020/12/10 12:18:29;;;;;;;10.55;6.25;;;;;;;;;;5093573;28;20022;-79
2020/12/10 12:20:55;;;;;;;11.80;6.70;;;;;;;;;;5089892;28;20040;-78
2020/12/10 12:23:21;;;;;;;11.65;6.65;;;;;;;;;;5082299;28;20073;-78
2020/12/10 12:25:47;;;;;;;11.05;7.00;;;;;;;;;;5077625;28;20039;-77
2020/12/10 12:28:13;;;;;;;12.80;7.20;;;;;;;;;;5089278;28;20052;-77
2020/12/10 12:30:39;;;;;;;11.98;6.25;;;;;;;;;;5079411;28;20032;-78
2020/12/10 12:33:05;;;;;;;10.73;6.32;;;;;;;;;;5082549;28;20033;-78
2020/12/10 12:35:31;;;;;;;12.65;6.53;;;;;;;;;;5073431;28;20013;-78
2020/12/10 12:37:57;;;;;;;10.98;6.55;;;;;;;;;;5077069;28;20044;-76
2020/12/10 12:40:24;;;;;;;13.10;6.45;;;;;;;;;;5075328;28;20040;-77
2020/12/10 12:42:52;;;;;;;11.00;6.43;;;;;;;;;;5078052;28;20039;-78
2020/12/10 12:45:18;;;;;;;10.15;6.25;;;;;;;;;;5082189;28;20028;-78
2020/12/10 12:47:44;;;;;;;11.88;7.43;;;;;;;;;;5082205;28;20028;-78
2020/12/10 12:50:10;;;;;;;11.40;7.25;;;;;;;;;;5081396;28;20495;-78
2020/12/10 12:52:37;;;;;;;13.25;7.38;;;;;;;;;;5084848;28;20058;-78
2020/12/10 12:55:03;;;;;;;14.90;7.53;;;;;;;;;;5080111;28;20017;-78
2020/12/10 12:57:29;;;;;;;10.88;6.72;;;;;;;;;;5080621;28;20102;-77
2020/12/10 12:59:54;;;;;;;12.65;6.55;;;;;;;;;;5075081;28;20028;-78
2020/12/10 13:02:20;;;;;;;12.35;7.03;;;;;;;;;;5067300;28;20059;-78
2020/12/10 13:04:46;;;;;;;10.60;6.93;;;;;;;;;;5063435;28;20029;-78
2020/12/10 13:07:12;;;;;;;11.45;7.03;;;;;;;;;;5063052;28;20020;-77
2020/12/10 13:09:38;;;;;;;11.43;6.63;;;;;;;;;;5061876;28;20031;-78
2020/12/10 13:12:05;;;;;;;11.70;7.30;;;;;;;;;;5069863;28;20509;-77
2020/12/10 13:16:49;;;;;;;10.25;6.90;;;;;;;;;;5050984;28;20360;-77
2020/12/10 13:21:36;;;;;;;12.63;7.32;;;;;;;;;;5091940;27;20408;-79
2020/12/10 13:24:02;;;;;;;12.38;7.68;;;;;;;;;;5086602;28;20020;-79
2020/12/10 13:26:29;;;;;;;13.40;7.50;;;;;;;;;;5079258;28;20116;-79
2020/12/10 13:28:55;;;;;;;13.73;7.93;;;;;;;;;;5071217;28;20024;-78
2020/12/10 13:31:34;;;;;;;18.90;9.18;;;;;;;;;;5075890;28;20027;-78
2020/12/10 13:34:01;;;;;;;15.90;8.02;;;;;;;;;;5071010;28;20066;-79
2020/12/10 13:36:27;;;;;;;10.85;6.82;;;;;;;;;;5074755;28;20032;-79
2020/12/10 13:38:54;;;;;;;12.07;6.63;;;;;;;;;;5070841;28;20029;-79
2020/12/10 13:41:20;;;;;;;11.13;6.72;;;;;;;;;;5076064;28;20048;-79
2020/12/10 13:43:46;;;;;;;11.70;6.35;;;;;;;;;;5074476;28;20028;-78
2020/12/10 13:46:13;;;;;;;10.35;6.43;;;;;;;;;;5064458;28;20017;-79
2020/12/10 13:48:39;;;;;;;12.93;6.97;;;;;;;;;;5076367;28;20017;-79
2020/12/10 13:51:05;;;;;;;13.02;7.43;;;;;;;;;;5080203;28;20020;-79
2020/12/10 13:53:31;;;;;;;12.55;7.65;;;;;;;;;;5072967;28;20051;-79
2020/12/10 13:55:57;;;;;;;13.90;7.00;;;;;;;;;;5072125;28;20032;-79
2020/12/10 13:58:23;;;;;;;11.75;6.78;;;;;;;;;;5080682;28;20029;-79
2020/12/10 14:00:49;;;;;;;12.13;6.13;;;;;;;;;;5073223;28;20036;-79
2020/12/10 14:03:15;;;;;;;14.18;7.15;;;;;;;;;;5075334;28;20062;-79
2020/12/10 14:05:41;;;;;;;13.20;7.65;;;;;;;;;;5072383;28;20009;-79
2020/12/10 14:08:07;;;;;;;10.30;6.50;;;;;;;;;;5070301;28;20020;-79
2020/12/10 14:10:33;;;;;;;11.52;5.93;;;;;;;;;;5074785;28;21342;-77
2020/12/10 14:12:59;;;;;;;10.75;6.25;;;;;;;;;;5078518;28;20016;-79
2020/12/10 14:15:25;;;;;;;32.40;14.32;;;;;;;;;;5073195;28;20032;-78
2020/12/10 14:17:51;;;;;;;29.63;13.85;;;;;;;;;;5074921;28;20041;-77
2020/12/10 14:20:19;;;;;;;19.35;11.05;;;;;;;;;;5071941;28;20036;-78
2020/12/10 14:25:04;;;;;;;16.50;9.20;;;;;;;;;;5049923;28;20370;-82
2020/12/10 14:27:30;;;;;;;12.30;7.22;;;;;;;;;;5032110;28;20494;-82
2020/12/10 14:29:56;;;;;;;16.90;10.05;;;;;;;;;;5042333;28;20045;-80
2020/12/10 14:34:40;;;;;;;21.33;12.55;;;;;;;;;;5128990;27;20414;-81
2020/12/10 14:37:06;;;;;;;19.08;12.23;;;;;;;;;;5112173;28;20036;-82
2020/12/10 14:39:32;;;;;;;17.08;10.90;;;;;;;;;;5098753;28;20077;-83
2020/12/10 14:41:58;;;;;;;12.80;8.35;;;;;;;;;;5101380;28;20034;-81
2020/12/10 14:44:24;;;;;;;21.17;15.25;;;;;;;;;;5098544;28;20744;-83
2020/12/10 14:46:51;;;;;;;17.85;12.65;;;;;;;;;;5096886;28;20476;-83
2020/12/10 14:49:17;;;;;;;16.40;11.30;;;;;;;;;;5096636;28;20020;-81
2020/12/10 14:51:46;;;;;;;11.50;8.23;;;;;;;;;;5106969;28;20126;-81
2020/12/10 14:54:12;;;;;;;11.57;7.75;;;;;;;;;;5106976;28;20052;-80
2020/12/10 14:56:40;;;;;;;12.98;7.88;;;;;;;;;;5103648;28;20028;-82
2020/12/10 14:59:06;;;;;;;10.25;7.22;;;;;;;;;;5097540;28;20030;-82
2020/12/10 15:01:32;;;;;;;10.68;6.10;;;;;;;;;;5096299;28;20099;-81
2020/12/10 15:03:57;;;;;;;11.18;6.88;;;;;;;;;;5095502;28;20489;-82
2020/12/10 15:06:23;;;;;;;10.77;6.05;;;;;;;;;;5095799;28;20042;-83
2020/12/10 15:08:50;;;;;;;15.05;8.57;;;;;;;;;;5096668;28;20534;-84
2020/12/10 15:11:17;;;;;;;11.00;6.88;;;;;;;;;;5094482;28;20048;-77
2020/12/10 15:13:43;;;;;;;13.57;8.52;;;;;;;;;;5094290;28;20035;-78
2020/12/10 15:16:09;;;;;;;14.60;9.70;;;;;;;;;;5093867;28;20024;-79
2020/12/10 15:18:35;;;;;;;13.68;9.55;;;;;;;;;;5093447;28;20025;-78
2020/12/10 15:21:01;;;;;;;12.57;7.15;;;;;;;;;;5093177;28;20383;-78
2020/12/10 15:23:27;;;;;;;17.88;10.98;;;;;;;;;;5093735;28;20020;-78
2020/12/10 15:25:53;;;;;;;15.57;9.30;;;;;;;;;;5091959;28;20032;-82
2020/12/10 15:28:19;;;;;;;13.48;9.13;;;;;;;;;;5094072;28;20035;-82
2020/12/10 15:30:45;;;;;;;13.35;7.75;;;;;;;;;;5094891;28;20372;-82
2020/12/10 15:33:11;;;;;;;12.95;8.23;;;;;;;;;;5094950;28;20032;-82
2020/12/10 15:35:37;;;;;;;13.35;8.38;;;;;;;;;;5092981;28;20032;-82
2020/12/10 15:38:03;;;;;;;15.52;8.30;;;;;;;;;;5092655;28;20027;-82
2020/12/10 15:40:29;;;;;;;17.35;10.15;;;;;;;;;;5091209;28;20028;-82
2020/12/10 15:42:55;;;;;;;13.77;7.93;;;;;;;;;;5094754;28;20024;-82
2020/12/10 15:45:21;;;;;;;10.20;6.57;;;;;;;;;;5084840;28;20477;-82
2020/12/10 15:47:47;;;;;;;11.95;7.45;;;;;;;;;;5080619;28;20024;-82
2020/12/10 15:50:13;;;;;;;10.73;6.70;;;;;;;;;;5081232;28;20112;-82
2020/12/10 15:52:39;;;;;;;10.20;6.68;;;;;;;;;;5081166;28;20078;-82
2020/12/10 15:55:06;;;;;;;12.02;7.50;;;;;;;;;;5078804;28;20045;-82
2020/12/10 15:57:33;;;;;;;12.82;8.05;;;;;;;;;;5081110;28;20025;-82
2020/12/10 15:59:59;;;;;;;13.15;7.32;;;;;;;;;;5079962;28;20020;-82
2020/12/10 16:02:25;;;;;;;10.95;7.28;;;;;;;;;;5080584;28;20084;-82
2020/12/10 16:04:51;;;;;;;12.57;8.13;;;;;;;;;;5078432;28;20028;-82
2020/12/10 16:07:17;;;;;;;12.73;7.43;;;;;;;;;;5079249;28;20361;-82
2020/12/10 16:09:46;;;;;;;13.25;7.40;;;;;;;;;;5092597;28;20107;-82
2020/12/10 16:12:12;;;;;;;12.60;7.60;;;;;;;;;;5084088;28;20332;-82
2020/12/10 16:14:38;;;;;;;11.60;6.55;;;;;;;;;;5080701;28;20043;-82
2020/12/10 16:17:04;;;;;;;12.27;7.80;;;;;;;;;;5081692;28;20082;-82
2020/12/10 16:19:29;;;;;;;11.63;7.30;;;;;;;;;;5081985;28;20024;-82
2020/12/10 16:21:55;;;;;;;11.55;7.10;;;;;;;;;;5081518;28;20036;-82
2020/12/10 16:24:21;;;;;;;14.65;8.30;;;;;;;;;;5083655;28;20033;-82
2020/12/10 16:29:06;;;;;;;14.30;7.25;;;;;;;;;;5127873;27;20319;-82
2020/12/10 16:31:32;;;;;;;11.60;7.53;;;;;;;;;;5128805;28;20047;-82
2020/12/10 16:33:57;;;;;;;10.68;5.97;;;;;;;;;;5123014;28;20076;-82
2020/12/10 16:36:24;;;;;;;16.85;10.98;;;;;;;;;;5121731;28;20032;-82
2020/12/10 16:38:50;;;;;;;13.25;8.23;;;;;;;;;;5111943;28;20035;-82
2020/12/10 16:41:24;;;;;;;10.80;6.35;;;;;;;;;;5100110;28;20028;-82
2020/12/10 16:43:50;;;;;;;10.25;6.22;;;;;;;;;;5095314;28;20113;-82
2020/12/10 16:46:16;;;;;;;15.52;7.43;;;;;;;;;;5092343;28;20472;-82
2020/12/10 16:48:42;;;;;;;10.55;6.63;;;;;;;;;;5095827;28;20025;-82
2020/12/10 16:51:12;;;;;;;11.82;7.45;;;;;;;;;;5095716;28;20404;-82
2020/12/10 16:53:38;;;;;;;12.15;7.13;;;;;;;;;;5105513;28;20024;-82
2020/12/10 16:56:04;;;;;;;10.45;6.45;;;;;;;;;;5103487;28;20024;-82
2020/12/10 16:58:30;;;;;;;12.00;7.07;;;;;;;;;;5106086;28;20069;-82
2020/12/10 17:00:57;;;;;;;13.18;6.95;;;;;;;;;;5105485;28;20032;-82
2020/12/10 17:03:23;;;;;;;12.95;7.50;;;;;;;;;;5100100;28;20442;-82
2020/12/10 17:05:48;;;;;;;11.90;7.32;;;;;;;;;;5096383;28;20024;-82
2020/12/10 17:08:14;;;;;;;10.95;7.05;;;;;;;;;;5103778;28;20024;-83
2020/12/10 17:10:40;;;;;;;11.38;6.95;;;;;;;;;;5096656;28;20030;-83
2020/12/10 17:13:06;;;;;;;13.25;6.53;;;;;;;;;;5100899;28;20084;-83
2020/12/10 17:15:32;;;;;;;12.27;8.25;;;;;;;;;;5105376;28;20027;-83
2020/12/10 17:17:58;;;;;;;13.30;7.35;;;;;;;;;;5103572;28;20036;-83
2020/12/10 17:20:24;;;;;;;13.48;8.30;;;;;;;;;;5101521;28;20021;-83
2020/12/10 17:22:50;;;;;;;13.93;8.77;;;;;;;;;;5102371;28;20094;-83
2020/12/10 17:25:16;;;;;;;17.60;10.02;;;;;;;;;;5107658;28;20046;-83
2020/12/10 17:27:42;;;;;;;10.15;6.93;;;;;;;;;;5101753;28;20043;-83
2020/12/10 17:30:08;;;;;;;11.27;7.15;;;;;;;;;;5102692;28;20032;-83
2020/12/10 17:32:33;;;;;;;10.75;6.85;;;;;;;;;;5102241;28;20024;-83
2020/12/10 17:34:59;;;;;;;11.95;6.60;;;;;;;;;;5109479;28;20669;-83
2020/12/10 17:37:25;;;;;;;11.25;6.43;;;;;;;;;;5101445;28;20032;-82
2020/12/10 17:39:51;;;;;;;10.05;6.38;;;;;;;;;;5093382;28;20020;-83
2020/12/10 17:42:17;;;;;;;16.23;7.47;;;;;;;;;;5091899;28;20421;-83
2020/12/10 17:44:43;;;;;;;15.68;8.98;;;;;;;;;;5085092;28;20094;-83
2020/12/10 17:47:09;;;;;;;11.85;7.13;;;;;;;;;;5082110;28;20101;-84
2020/12/10 17:49:35;;;;;;;9.77;6.65;;;;;;;;;;5080794;28;20031;-84
2020/12/10 17:52:01;;;;;;;8.43;5.43;;;;;;;;;;5075683;28;20838;-84
2020/12/10 17:54:27;;;;;;;9.05;6.13;;;;;;;;;;5071934;28;20020;-83
2020/12/10 17:56:53;;;;;;;10.90;5.47;;;;;;;;;;5082064;28;20031;-84
2020/12/10 17:59:19;;;;;;;9.15;5.68;;;;;;;;;;5075260;28;20024;-84
2020/12/10 18:01:46;;;;;;;10.52;5.93;;;;;;;;;;5070582;28;20412;-84
2020/12/10 18:04:12;;;;;;;10.23;5.80;;;;;;;;;;5083393;28;20032;-84
2020/12/10 18:06:39;;;;;;;9.15;5.15;;;;;;;;;;5081538;28;20111;-83
2020/12/10 18:09:05;;;;;;;8.27;5.20;;;;;;;;;;5094120;28;20092;-83
2020/12/10 18:11:32;;;;;;;9.60;5.45;;;;;;;;;;5071565;28;20024;-83
2020/12/10 18:13:59;;;;;;;9.13;5.43;;;;;;;;;;5068376;28;20025;-83
2020/12/10 18:16:25;;;;;;;11.30;5.88;;;;;;;;;;5074740;28;20074;-83
2020/12/10 18:18:51;;;;;;;11.48;7.07;;;;;;;;;;5071650;28;20032;-82
2020/12/10 18:21:17;;;;;;;12.35;7.18;;;;;;;;;;5073886;28;20074;-81
2020/12/10 18:23:44;;;;;;;12.00;7.50;;;;;;;;;;5076881;28;20115;-79
2020/12/10 18:26:10;;;;;;;11.90;7.55;;;;;;;;;;5076573;28;20108;-81
2020/12/10 18:28:36;;;;;;;10.55;5.90;;;;;;;;;;5074576;28;20037;-81
2020/12/10 18:31:02;;;;;;;12.68;7.20;;;;;;;;;;5072387;28;20542;-80
2020/12/10 18:33:28;;;;;;;19.27;12.65;;;;;;;;;;5075575;28;20092;-81
2020/12/10 18:35:56;;;;;;;13.43;8.57;;;;;;;;;;5080463;28;20483;-81
2020/12/10 18:38:22;;;;;;;11.38;7.78;;;;;;;;;;5077489;28;20029;-81
2020/12/10 18:43:09;;;;;;;14.25;8.27;;;;;;;;;;5058185;28;21112;-82
2020/12/10 18:45:35;;;;;;;12.85;7.95;;;;;;;;;;5070523;28;20017;-81
2020/12/10 18:48:01;;;;;;;11.32;6.90;;;;;;;;;;5054515;28;20029;-81
2020/12/10 18:50:30;;;;;;;15.80;9.20;;;;;;;;;;5049536;28;20033;-80
2020/12/10 18:52:56;;;;;;;10.48;7.10;;;;;;;;;;5058695;28;20389;-78
2020/12/10 18:57:42;;;;;;;10.13;6.63;;;;;;;;;;5051343;28;20931;-79
2020/12/10 19:00:13;;;;;;;12.88;7.45;;;;;;;;;;5044487;28;20587;-80
2020/12/10 19:05:24;;;;;;;10.80;5.90;;;;;;;;;;5035790;28;20022;-80
2020/12/10 19:07:50;;;;;;;9.27;5.43;;;;;;;;;;5041215;28;20382;-80
2020/12/10 19:10:19;;;;;;;13.13;8.73;;;;;;;;;;5042080;28;20065;-81
2020/12/10 19:12:45;;;;;;;14.65;7.47;;;;;;;;;;5040640;28;20112;-80
2020/12/10 19:15:12;;;;;;;12.98;7.72;;;;;;;;;;5044565;28;20449;-80
2020/12/10 19:17:38;;;;;;;11.82;7.18;;;;;;;;;;5033049;28;20030;-80
2020/12/10 19:20:04;;;;;;;12.05;7.70;;;;;;;;;;5031690;28;20032;-81
2020/12/10 19:22:31;;;;;;;11.70;6.72;;;;;;;;;;5038857;28;20033;-81
2020/12/10 19:24:58;;;;;;;12.45;7.72;;;;;;;;;;5039213;28;20472;-80
2020/12/10 19:27:24;;;;;;;11.30;7.35;;;;;;;;;;5037080;28;20387;-81
2020/12/10 19:29:50;;;;;;;12.48;6.95;;;;;;;;;;5038956;28;20028;-80
2020/12/10 19:32:16;;;;;;;9.48;5.97;;;;;;;;;;5041502;28;20025;-80
2020/12/10 19:34:44;;;;;;;9.85;6.07;;;;;;;;;;5035430;28;20036;-81
2020/12/10 19:37:14;;;;;;;12.13;6.35;;;;;;;;;;5036507;28;20396;-80
2020/12/10 19:39:40;;;;;;;11.07;7.43;;;;;;;;;;5039244;28;20033;-80
2020/12/10 19:42:06;;;;;;;11.43;6.38;;;;;;;;;;5036207;28;20038;-79
2020/12/10 19:44:31;;;;;;;10.52;6.45;;;;;;;;;;5034314;28;20037;-79
2020/12/10 19:46:57;;;;;;;10.30;6.93;;;;;;;;;;5034129;28;20068;-81
2020/12/10 19:49:23;;;;;;;10.65;6.20;;;;;;;;;;5029868;28;20026;-80
2020/12/10 19:51:49;;;;;;;15.70;9.70;;;;;;;;;;5031045;28;20528;-81
2020/12/10 19:54:15;;;;;;;14.80;10.30;;;;;;;;;;5033647;28;20037;-80
2020/12/10 19:56:41;;;;;;;18.45;9.85;;;;;;;;;;5036320;28;20039;-81
2020/12/10 19:59:07;;;;;;;11.00;7.65;;;;;;;;;;5031661;28;20029;-81
2020/12/10 20:01:34;;;;;;;15.05;8.88;;;;;;;;;;5032782;28;20044;-81
2020/12/10 20:04:04;;;;;;;13.00;7.85;;;;;;;;;;5038435;28;20021;-80
2020/12/10 20:06:30;;;;;;;11.05;6.95;;;;;;;;;;5038310;28;20102;-80
2020/12/10 20:08:57;;;;;;;12.75;7.60;;;;;;;;;;5024602;28;20029;-80
2020/12/10 20:11:23;;;;;;;10.65;6.35;;;;;;;;;;5023285;28;20112;-79
2020/12/10 20:13:49;;;;;;;9.80;6.50;;;;;;;;;;5026057;28;20112;-79
2020/12/10 20:16:15;;;;;;;8.35;4.95;;;;;;;;;;5022886;28;20132;-79
2020/12/10 20:18:42;;;;;;;10.18;6.45;;;;;;;;;;5026284;28;20082;-78
2020/12/10 20:21:09;;;;;;;11.20;6.30;;;;;;;;;;5042089;28;20060;-79
2020/12/10 20:23:35;;;;;;;11.35;7.72;;;;;;;;;;5044822;28;20378;-79
2020/12/10 20:26:03;;;;;;;13.77;8.63;;;;;;;;;;5044026;28;20029;-79
2020/12/10 20:28:30;;;;;;;11.60;7.95;;;;;;;;;;5039694;28;20021;-79
2020/12/10 20:30:57;;;;;;;12.85;7.97;;;;;;;;;;5035669;28;20097;-79
2020/12/10 20:33:23;;;;;;;13.57;8.98;;;;;;;;;;5026637;28;20030;-80
2020/12/10 20:36:01;;;;;;;10.63;7.80;;;;;;;;;;5024821;28;20026;-79
2020/12/10 20:38:28;;;;;;;11.02;7.22;;;;;;;;;;5027509;28;20520;-80
2020/12/10 20:40:54;;;;;;;12.13;7.00;;;;;;;;;;5033126;28;20029;-81
2020/12/10 20:43:26;;;;;;;11.90;7.90;;;;;;;;;;5034655;28;20064;-81
2020/12/10 20:45:53;;;;;;;9.88;6.32;;;;;;;;;;5037929;28;20033;-77
2020/12/10 20:48:19;;;;;;;11.32;7.10;;;;;;;;;;5029476;28;20172;-79